Time;durP1;ratioP1;P1;durP2;ratioP2;P2;SDS_P1;SDS_P2;PMS_P1;PMS_P2;Temp;Humidity;BMP_temperature;BMP_pressure;BME280_temperature;BME280_humidity;BME280_pressure;Samples;Min_cycle;Max_cycle;Signal;HPM_P1;HPM_P2
2021/06/05 00:00:26;;;;;;;8.80;6.13;;;18.80;76.10;;;17.64;74.40;96352.59;4973704;28;20046;-70
2021/06/05 00:02:52;;;;;;;8.57;6.03;;;18.80;76.10;;;17.61;72.36;96350.38;4990883;28;20054;-70
2021/06/05 00:05:23;;;;;;;7.63;6.30;;;18.80;76.50;;;17.59;74.34;96352.47;4978939;28;20069;-70
2021/06/05 00:07:50;;;;;;;10.65;7.10;;;18.80;76.90;;;17.60;73.39;96340.78;4974904;28;20081;-69
2021/06/05 00:10:32;;;;;;;7.82;6.95;;;18.80;77.10;;;17.62;74.74;96340.56;4991728;28;20120;-69
2021/06/05 00:12:58;;;;;;;8.60;6.97;;;18.80;77.20;;;17.64;73.38;96339.28;5007453;28;20026;-70
2021/06/05 00:15:32;;;;;;;8.82;7.95;;;18.80;77.20;;;17.67;75.13;96344.22;5001210;28;20026;-69
2021/06/05 00:17:58;;;;;;;8.82;7.70;;;18.90;77.50;;;17.67;73.41;96338.91;4996674;28;20096;-70
2021/06/05 00:20:24;;;;;;;9.93;7.90;;;18.90;77.50;;;17.73;73.63;96348.63;4994019;28;20084;-70
2021/06/05 00:22:50;;;;;;;9.13;8.20;;;19.00;77.60;;;17.72;73.96;96347.00;4977145;28;20100;-70
2021/06/05 00:25:16;;;;;;;10.00;7.97;;;19.00;77.60;;;17.74;74.35;96346.75;4998481;28;20046;-70
2021/06/05 00:27:42;;;;;;;11.73;8.32;;;19.00;77.60;;;17.73;74.30;96348.63;4976993;28;20038;-69
2021/06/05 00:30:08;;;;;;;9.65;8.23;;;19.00;77.70;;;17.75;73.71;96348.38;4983630;28;20107;-69
2021/06/05 00:32:34;;;;;;;11.18;8.20;;;19.00;77.50;;;17.79;73.84;96351.41;5001256;28;20034;-69
2021/06/05 00:35:00;;;;;;;9.68;7.93;;;19.00;77.40;;;17.83;74.32;96352.56;4993613;28;20040;-70
2021/06/05 00:37:26;;;;;;;8.88;7.97;;;19.00;77.50;;;17.85;74.16;96350.47;5006138;28;20088;-70
2021/06/05 00:39:51;;;;;;;9.10;8.20;;;19.10;77.50;;;17.85;73.79;96345.16;4946832;28;20430;-70
2021/06/05 00:42:17;;;;;;;9.18;8.05;;;19.10;77.60;;;17.86;74.44;96344.94;4959172;28;20068;-69
2021/06/05 00:44:43;;;;;;;10.15;8.55;;;19.10;77.40;;;17.86;74.19;96344.94;4988494;28;20064;-70
2021/06/05 00:47:09;;;;;;;10.00;8.43;;;19.10;77.40;;;17.89;74.26;96346.34;4994977;28;20512;-70
2021/06/05 00:49:35;;;;;;;9.85;8.23;;;19.10;77.20;;;17.90;74.39;96342.66;4992945;28;20516;-68
2021/06/05 00:52:01;;;;;;;9.98;8.20;;;19.10;77.20;;;17.92;74.15;96341.38;5009781;28;20065;-70
2021/06/05 00:54:27;;;;;;;10.75;9.00;;;19.10;77.20;;;17.91;74.07;96339.75;4992317;28;20112;-69
2021/06/05 00:56:55;;;;;;;8.40;7.60;;;19.10;77.00;;;17.91;74.70;96337.09;4993012;28;20046;-71
2021/06/05 00:59:21;;;;;;;10.27;8.23;;;19.20;77.00;;;17.94;74.22;96333.97;4987802;28;20030;-71
2021/06/05 01:01:47;;;;;;;7.93;6.07;;;19.20;76.80;;;17.99;73.50;96335.94;4996870;28;20034;-70
2021/06/05 01:04:13;;;;;;;9.68;8.27;;;19.20;76.60;;;17.98;73.44;96334.31;5009587;28;20448;-71
2021/06/05 01:06:51;;;;;;;9.48;8.48;;;19.20;76.90;;;17.98;75.05;96332.47;4995298;28;20155;-70
2021/06/05 01:09:31;;;;;;;9.75;8.50;;;19.20;76.90;;;17.98;75.40;96331.66;4974404;28;20100;-68
2021/06/05 01:12:20;;;;;;;11.45;8.73;;;19.20;76.80;;;17.98;75.39;96334.31;4981454;28;20045;-70
2021/06/05 01:14:58;;;;;;;9.10;8.07;;;19.20;76.80;;;17.99;74.96;96341.25;4958615;28;20030;-70
2021/06/05 01:17:51;;;;;;;11.27;8.63;;;19.20;76.90;;;17.99;75.76;96349.25;4996147;28;20108;-70
2021/06/05 01:20:34;;;;;;;10.35;7.93;;;19.10;77.00;;;17.98;75.15;96352.94;4998340;28;20047;-69
2021/06/05 01:23:31;;;;;;;10.13;9.02;;;19.10;77.00;;;17.99;75.05;96349.25;4974649;28;20037;-70
2021/06/05 01:26:23;;;;;;;10.57;8.55;;;19.10;76.90;;;17.96;75.75;96342.53;5016559;28;20045;-70
2021/06/05 01:28:56;;;;;;;11.10;8.45;;;19.10;76.90;;;17.95;75.19;96345.44;5003213;28;20049;-69
2021/06/05 01:31:37;;;;;;;9.43;8.38;;;19.20;76.90;;;17.94;75.69;96346.47;4989700;28;20029;-69
2021/06/05 01:34:02;;;;;;;8.65;7.63;;;19.10;77.00;;;17.92;73.84;96359.19;5007766;28;20502;-70
2021/06/05 01:36:28;;;;;;;9.52;7.53;;;19.10;77.10;;;17.92;74.17;96361.84;5007751;28;20117;-71
2021/06/05 01:39:01;;;;;;;9.48;7.30;;;19.10;77.00;;;17.89;74.67;96364.97;4991241;28;20065;-68
2021/06/05 01:41:27;;;;;;;9.63;7.85;;;19.10;77.20;;;17.87;74.50;96369.69;4977741;28;20533;-70
2021/06/05 01:43:53;;;;;;;10.35;8.13;;;19.00;77.20;;;17.84;74.10;96365.63;4980740;28;20587;-70
2021/06/05 01:46:22;;;;;;;8.88;7.75;;;19.00;77.10;;;17.84;74.75;96364.81;4987548;28;20277;-70
2021/06/05 01:48:48;;;;;;;8.80;7.90;;;19.00;77.10;;;17.78;73.94;96357.75;4994518;28;20046;-70
2021/06/05 01:51:16;;;;;;;11.35;8.23;;;18.90;77.30;;;17.77;75.18;96364.13;4993738;28;20586;-70
2021/06/05 01:53:51;;;;;;;11.95;8.68;;;18.90;77.30;;;17.74;75.10;96357.41;4989925;28;20030;-68
2021/06/05 01:56:52;;;;;;;11.35;8.48;;;18.80;77.50;;;17.70;75.75;96359.72;4996504;28;20509;-70
2021/06/05 01:59:18;;;;;;;;;;;18.90;77.60;;;17.64;76.10;96360.56;4999243;28;20034;-70
2021/06/05 02:01:44;;;;;;;13.18;10.50;;;18.70;78.00;;;17.55;74.34;96364.59;4982618;28;19972;-69
2021/06/05 02:04:10;;;;;;;11.43;10.23;;;18.60;78.50;;;17.53;74.40;96366.69;4991911;28;20033;-70
2021/06/05 02:06:36;;;;;;;10.82;9.73;;;18.60;78.60;;;17.51;74.92;96366.09;5002061;28;20030;-70
2021/06/05 02:09:04;;;;;;;12.18;10.07;;;18.60;78.80;;;17.49;75.59;96368.16;4988545;28;20505;-68
2021/06/05 02:11:30;;;;;;;15.13;12.00;;;18.60;78.70;;;17.45;74.92;96367.81;5004708;28;20180;-69
2021/06/05 02:14:12;;;;;;;14.05;12.52;;;18.60;78.90;;;17.40;76.85;96369.50;5004405;28;20042;-70
2021/06/05 02:16:42;;;;;;;15.13;11.82;;;18.50;79.30;;;17.34;76.15;96365.91;4973966;28;20049;-69
2021/06/05 02:19:39;;;;;;;14.05;11.52;;;18.40;79.70;;;17.33;77.71;96374.09;4978281;28;20053;-69
2021/06/05 02:22:12;;;;;;;13.13;11.75;;;18.40;80.00;;;17.30;76.97;96386.00;4992766;28;20103;-70
2021/06/05 02:24:46;;;;;;;16.05;11.27;;;18.40;79.90;;;17.27;77.51;96385.66;5003859;28;20037;-70
2021/06/05 02:27:16;;;;;;;12.27;10.93;;;18.30;80.40;;;17.26;77.28;96381.38;5011876;28;20041;-70
2021/06/05 02:29:42;;;;;;;11.13;10.02;;;18.40;80.20;;;17.24;75.99;96380.78;4966408;28;20528;-71
2021/06/05 02:32:10;;;;;;;11.50;10.30;;;18.30;80.30;;;17.18;77.15;96384.31;5001037;28;20042;-70
2021/06/05 02:34:36;;;;;;;11.60;10.40;;;18.20;80.60;;;17.13;76.72;96380.47;4978803;28;20032;-70
2021/06/05 02:37:06;;;;;;;13.50;10.98;;;18.10;80.70;;;17.14;77.30;96384.75;4993199;28;20034;-70
2021/06/05 02:39:32;;;;;;;11.68;10.48;;;18.20;80.40;;;17.11;76.83;96371.91;5009008;28;20026;-71
2021/06/05 02:41:58;;;;;;;12.45;10.30;;;18.20;80.30;;;17.10;76.62;96375.63;4974807;28;20064;-70
2021/06/05 02:44:27;;;;;;;11.55;10.35;;;18.10;80.30;;;17.09;77.33;96384.63;4983848;28;20033;-70
2021/06/05 02:46:53;;;;;;;13.77;11.13;;;18.10;80.40;;;17.07;76.35;96386.69;4978245;28;20035;-70
2021/06/05 02:49:19;;;;;;;12.32;11.13;;;18.10;80.30;;;17.04;76.44;96384.50;4986962;28;20455;-70
2021/06/05 02:52:28;;;;;;;14.32;11.57;;;18.10;80.30;;;16.96;77.67;96384.75;5029837;28;20025;-70
2021/06/05 02:55:08;;;;;;;11.98;10.82;;;17.90;80.80;;;16.92;78.78;96372.97;4999033;28;20038;-69
2021/06/05 02:57:34;;;;;;;13.20;11.70;;;17.90;80.80;;;16.90;76.89;96377.69;5013195;28;20040;-68
2021/06/05 03:00:00;;;;;;;13.80;12.40;;;18.00;80.50;;;16.83;77.04;96379.63;4993196;28;20128;-69
2021/06/05 03:02:25;;;;;;;14.50;12.98;;;17.80;80.80;;;16.78;76.93;96379.47;4980767;28;20042;-70
2021/06/05 03:04:51;;;;;;;13.05;11.75;;;17.80;80.80;;;16.77;76.79;96375.19;5003459;28;20136;-69
2021/06/05 03:07:17;;;;;;;13.80;12.40;;;17.80;80.80;;;16.75;76.28;96377.25;4993227;28;20526;-71
2021/06/05 03:09:43;;;;;;;13.82;12.40;;;17.80;80.50;;;16.68;76.47;96382.63;4986409;28;20141;-77
2021/06/05 03:12:11;;;;;;;14.45;12.20;;;17.70;80.80;;;16.67;77.86;96381.00;4977500;28;20077;-72
2021/06/05 03:14:39;;;;;;;13.90;12.05;;;17.70;80.60;;;16.66;77.33;96378.53;4995093;28;20069;-71
2021/06/05 03:17:06;;;;;;;16.23;13.98;;;17.70;80.30;;;16.60;76.53;96387.38;4983749;28;20034;-69
2021/06/05 03:19:32;;;;;;;15.35;13.57;;;17.60;80.70;;;16.50;77.19;96386.03;4992549;28;20489;-71
2021/06/05 03:21:58;;;;;;;14.57;13.15;;;17.50;81.10;;;16.47;77.61;96396.28;5002032;28;20034;-72
2021/06/05 03:24:24;;;;;;;15.30;13.60;;;17.50;80.80;;;16.42;77.11;96398.78;4999883;28;20109;-75
2021/06/05 03:26:49;;;;;;;15.30;13.88;;;17.50;81.00;;;16.35;77.14;96396.19;4977407;28;20080;-71
2021/06/05 03:29:15;;;;;;;14.93;13.38;;;17.30;81.40;;;16.30;77.29;96401.34;4969621;28;20401;-71
2021/06/05 03:31:41;;;;;;;16.38;14.23;;;17.20;81.60;;;16.26;78.18;96400.13;4989564;28;20038;-73
2021/06/05 03:34:07;;;;;;;16.73;13.70;;;17.20;81.60;;;16.24;77.20;96394.22;4976331;28;20490;-71
2021/06/05 03:36:33;;;;;;;17.70;13.82;;;17.20;81.60;;;16.22;77.98;96399.75;4973038;28;20077;-67
2021/06/05 03:38:58;;;;;;;16.42;14.18;;;17.20;81.60;;;16.23;78.07;96395.25;4976443;28;20198;-69
2021/06/05 03:41:24;;;;;;;16.23;13.98;;;17.30;81.40;;;16.20;77.28;96398.34;5001988;28;20038;-70
2021/06/05 03:43:50;;;;;;;17.38;14.55;;;17.20;81.50;;;16.19;77.32;96394.88;4998421;28;20058;-69
2021/06/05 03:46:16;;;;;;;17.58;14.45;;;17.30;81.30;;;16.19;77.54;96394.06;5010991;28;20428;-69
2021/06/05 03:48:41;;;;;;;15.70;14.15;;;17.30;81.20;;;16.20;77.55;96391.19;5007549;28;20034;-68
2021/06/05 03:51:07;;;;;;;15.90;14.25;;;17.30;80.90;;;16.20;77.86;96395.69;4976576;28;20534;-68
2021/06/05 03:53:33;;;;;;;15.48;13.98;;;17.30;81.00;;;16.20;77.79;96401.81;4995948;28;20370;-70
2021/06/05 03:55:59;;;;;;;15.20;13.60;;;17.30;80.80;;;16.19;77.21;96405.50;4985182;28;20099;-69
2021/06/05 03:58:27;;;;;;;16.98;13.68;;;17.30;80.60;;;16.19;77.73;96404.69;4973992;28;20092;-69
2021/06/05 04:00:53;;;;;;;16.00;12.77;;;17.30;80.70;;;16.20;77.14;96401.00;4957706;28;20034;-69
2021/06/05 04:03:19;;;;;;;15.57;12.65;;;17.40;80.40;;;16.19;77.74;96402.03;4958531;28;20037;-70
2021/06/05 04:05:45;;;;;;;13.95;12.05;;;17.30;80.10;;;16.19;76.85;96402.03;4993105;28;20033;-70
2021/06/05 04:08:12;;;;;;;12.93;11.70;;;17.30;80.30;;;16.19;77.56;96405.50;5006168;28;20121;-68
2021/06/05 04:10:38;;;;;;;13.70;11.57;;;17.30;79.80;;;16.19;77.34;96399.38;4993256;28;20157;-68
2021/06/05 04:13:03;;;;;;;14.50;11.60;;;17.30;80.00;;;16.19;77.66;96404.69;5008884;28;20117;-70
2021/06/05 04:15:30;;;;;;;15.60;11.82;;;17.30;79.80;;;16.22;77.26;96412.22;4986709;28;20120;-71
2021/06/05 04:18:09;;;;;;;12.23;10.45;;;17.40;79.50;;;16.23;77.85;96400.56;4983431;28;20178;-71
2021/06/05 04:20:36;;;;;;;14.20;10.77;;;17.40;79.60;;;16.25;76.40;96409.13;4992071;28;20100;-73
2021/06/05 04:23:02;;;;;;;11.63;9.57;;;17.50;78.90;;;16.28;76.99;96413.19;4997261;28;20569;-74
2021/06/05 04:25:28;;;;;;;11.60;9.88;;;17.50;79.10;;;16.28;76.88;96411.34;4974870;28;20042;-72
2021/06/05 04:27:54;;;;;;;10.68;9.57;;;17.50;78.90;;;16.29;77.09;96401.53;4987388;28;20069;-69
2021/06/05 04:30:22;;;;;;;11.32;9.23;;;17.50;78.50;;;16.30;76.54;96411.97;4998791;28;20046;-72
2021/06/05 04:32:48;;;;;;;11.88;9.48;;;17.40;78.90;;;16.31;77.02;96408.28;4993315;28;20037;-71
2021/06/05 04:35:14;;;;;;;10.25;9.25;;;17.60;78.50;;;16.35;76.16;96413.97;4974571;28;20033;-71
2021/06/05 04:37:40;;;;;;;10.93;9.38;;;17.60;78.50;;;16.38;76.20;96405.56;4960279;28;20111;-70
2021/06/05 04:40:07;;;;;;;10.25;8.80;;;17.60;78.10;;;16.42;76.43;96402.25;4986401;28;20164;-69
2021/06/05 04:42:32;;;;;;;9.23;8.10;;;17.80;77.80;;;16.49;76.11;96405.66;4971793;28;20505;-71
2021/06/05 04:44:58;;;;;;;9.70;8.05;;;17.80;77.60;;;16.58;76.05;96414.16;4973828;28;20113;-70
2021/06/05 04:47:24;;;;;;;10.23;8.38;;;17.90;77.20;;;16.65;75.93;96408.78;4983595;28;20065;-71
2021/06/05 04:49:50;;;;;;;9.73;7.13;;;18.10;76.90;;;16.72;76.26;96404.25;4987704;28;20128;-71
2021/06/05 04:52:15;;;;;;;10.57;7.20;;;18.10;76.20;;;16.78;75.55;96403.38;5007379;28;20038;-72
2021/06/05 04:54:41;;;;;;;8.63;6.95;;;18.20;76.30;;;16.88;75.53;96402.84;4974600;28;20120;-71
2021/06/05 04:57:07;;;;;;;7.80;6.80;;;18.30;75.80;;;16.96;75.02;96402.56;4973970;28;20181;-71
2021/06/05 04:59:33;;;;;;;7.53;6.65;;;18.30;75.40;;;17.04;75.09;96407.59;5004087;28;20048;-72
2021/06/05 05:01:59;;;;;;;7.90;6.65;;;18.50;75.00;;;17.11;74.56;96409.13;4959332;28;20121;-72
2021/06/05 05:04:25;;;;;;;7.50;5.82;;;18.60;74.80;;;17.18;74.15;96408.25;4985272;28;20114;-71
2021/06/05 05:06:50;;;;;;;6.80;6.05;;;18.60;74.40;;;17.22;73.97;96404.13;4992668;28;20034;-71
2021/06/05 05:09:16;;;;;;;7.43;6.10;;;18.60;74.60;;;17.28;74.79;96403.22;4991070;28;20173;-72
2021/06/05 05:11:43;;;;;;;8.02;5.97;;;18.60;74.30;;;17.30;74.29;96399.31;4974529;28;20139;-70
2021/06/05 05:14:10;;;;;;;8.68;5.90;;;18.60;74.30;;;17.34;73.74;96397.81;4988877;28;20031;-70
2021/06/05 05:16:36;;;;;;;10.95;5.80;;;18.60;74.30;;;17.38;73.40;96398.16;4986386;28;20493;-71
2021/06/05 05:19:02;;;;;;;6.88;5.05;;;18.60;73.50;;;17.41;73.82;96397.72;4987790;28;20053;-70
2021/06/05 05:21:28;;;;;;;8.27;6.05;;;18.70;73.80;;;17.46;73.67;96400.53;4994028;28;20050;-72
2021/06/05 05:23:54;;;;;;;7.15;5.25;;;18.80;74.10;;;17.48;73.65;96406.44;4989552;28;20070;-71
2021/06/05 05:26:20;;;;;;;9.25;6.70;;;18.80;74.10;;;17.49;73.52;96400.09;4993842;28;20042;-71
2021/06/05 05:28:46;;;;;;;8.00;5.10;;;18.70;73.80;;;17.52;72.52;96404.16;4981418;28;20042;-70
2021/06/05 05:31:14;;;;;;;6.30;5.07;;;18.80;72.90;;;17.58;72.18;96398.72;4964033;28;20045;-71
2021/06/05 05:33:41;;;;;;;6.88;5.38;;;18.90;72.30;;;17.64;73.43;96403.13;4965851;28;20045;-70
2021/06/05 05:36:24;;;;;;;6.18;5.20;;;19.10;72.30;;;17.77;72.00;96401.38;4988091;28;20065;-70
2021/06/05 05:38:50;;;;;;;6.35;4.75;;;19.40;71.60;;;17.85;72.01;96404.50;4988795;28;20625;-71
2021/06/05 05:41:17;;;;;;;8.73;5.03;;;19.50;71.10;;;17.92;72.17;96388.47;4993475;28;20033;-70
2021/06/05 05:43:43;;;;;;;5.90;4.75;;;19.60;70.30;;;17.96;71.47;96395.75;4974272;28;20026;-72
2021/06/05 05:46:09;;;;;;;6.75;5.00;;;19.60;70.30;;;18.02;71.75;96399.34;4988727;28;20084;-70
2021/06/05 05:48:36;;;;;;;10.75;5.68;;;19.50;69.70;;;18.04;71.52;96397.28;4989334;28;20034;-73
2021/06/05 05:51:02;;;;;;;13.27;7.78;;;19.60;69.90;;;18.07;71.33;96394.16;4992327;28;20061;-71
2021/06/05 05:53:28;;;;;;;6.43;5.53;;;19.60;69.90;;;18.10;70.69;96398.22;4967570;28;20045;-70
2021/06/05 05:55:54;;;;;;;9.93;6.93;;;19.70;69.50;;;18.17;71.06;96389.09;4973628;28;20401;-75
2021/06/05 05:58:21;;;;;;;5.68;4.43;;;19.90;69.20;;;18.24;70.89;96391.63;4984893;28;20042;-73
2021/06/05 06:00:48;;;;;;;4.85;4.20;;;20.10;68.70;;;18.34;70.72;96392.72;4986230;28;20046;-71
2021/06/05 06:03:14;;;;;;;11.25;7.03;;;20.30;68.40;;;18.44;71.36;96384.13;4990339;28;20033;-74
2021/06/05 06:05:40;;;;;;;10.70;6.10;;;20.40;68.40;;;18.57;71.11;96377.78;4973823;28;20128;-72
2021/06/05 06:08:07;;;;;;;4.78;4.10;;;20.60;67.50;;;18.70;70.23;96380.22;5006543;28;20500;-67
2021/06/05 06:10:33;;;;;;;7.68;4.07;;;20.70;66.70;;;18.83;69.83;96379.97;4988798;28;20037;-71
2021/06/05 06:12:59;;;;;;;5.50;4.53;;;21.00;66.50;;;19.00;69.85;96381.91;5006938;28;20485;-74
2021/06/05 06:15:26;;;;;;;6.90;3.47;;;21.20;65.50;;;19.18;69.99;96389.75;4989815;28;20111;-72
2021/06/05 06:17:52;;;;;;;6.88;4.00;;;21.50;64.30;;;19.33;69.12;96392.75;5001579;28;20027;-73
2021/06/05 06:20:24;;;;;;;5.18;4.18;;;21.60;63.60;;;19.50;68.59;96390.94;4965705;28;20046;-75
2021/06/05 06:22:50;;;;;;;4.28;3.22;;;21.80;62.70;;;19.63;68.00;96391.72;4968803;28;20030;-68
2021/06/05 06:25:19;;;;;;;4.68;2.70;;;22.00;62.40;;;19.71;67.51;96396.69;4972266;28;20033;-69
2021/06/05 06:27:45;;;;;;;3.13;2.60;;;22.00;62.00;;;19.84;66.64;96391.06;4956942;28;20511;-68
2021/06/05 06:30:12;;;;;;;2.60;2.10;;;22.30;60.40;;;20.01;67.03;96391.91;4986770;28;20037;-67
2021/06/05 06:32:38;;;;;;;3.85;2.20;;;22.80;60.40;;;20.19;66.77;96394.34;5007089;28;20045;-67
2021/06/05 06:35:04;;;;;;;3.53;2.10;;;22.90;58.90;;;20.37;66.14;96395.97;5006440;28;20393;-66
2021/06/05 06:37:30;;;;;;;5.80;3.50;;;22.90;58.20;;;20.56;65.57;96387.69;5002729;28;20441;-69
2021/06/05 06:39:56;;;;;;;5.07;3.10;;;23.10;57.60;;;20.73;64.89;96394.66;4986745;28;20103;-68
2021/06/05 06:42:21;;;;;;;4.53;2.55;;;23.40;57.40;;;20.90;65.18;96383.94;4966912;28;20577;-69
2021/06/05 06:44:47;;;;;;;2.88;1.63;;;23.50;56.90;;;21.08;64.96;96383.66;4970184;28;20041;-72
2021/06/05 06:47:13;;;;;;;2.60;1.60;;;23.60;55.10;;;21.28;63.87;96385.78;4973691;28;20112;-72
2021/06/05 06:49:39;;;;;;;2.05;1.63;;;24.00;55.40;;;21.47;63.46;96382.78;4993775;28;20046;-70
2021/06/05 06:52:05;;;;;;;5.07;2.05;;;24.10;54.20;;;21.66;62.47;96398.25;5005890;28;20061;-69
2021/06/05 06:54:31;;;;;;;2.78;1.58;;;24.30;53.60;;;21.90;62.16;96388.06;4988469;28;20022;-72
2021/06/05 06:56:56;;;;;;;3.97;1.40;;;24.60;52.40;;;22.11;61.32;96393.63;4985945;28;20557;-71
2021/06/05 06:59:22;;;;;;;3.13;1.80;;;24.90;52.10;;;22.34;60.94;96393.28;4992463;28;20064;-67
2021/06/05 07:01:48;;;;;;;2.70;1.60;;;25.00;51.60;;;22.49;60.22;96387.25;4985616;28;20041;-66
2021/06/05 07:04:14;;;;;;;2.03;1.30;;;25.00;50.50;;;22.58;59.86;96388.38;4973563;28;20116;-69
2021/06/05 07:06:40;;;;;;;2.75;1.65;;;25.20;50.40;;;22.77;59.58;96394.94;4978287;28;20137;-72
2021/06/05 07:09:06;;;;;;;2.85;1.50;;;25.70;50.30;;;22.98;59.10;96390.53;5007398;28;20026;-71
2021/06/05 07:11:33;;;;;;;1.30;1.00;;;25.80;50.30;;;23.07;57.82;96391.66;4976742;28;20030;-71
2021/06/05 07:14:01;;;;;;;4.35;2.50;;;25.50;48.90;;;23.10;57.01;96396.50;4991764;28;20116;-72
2021/06/05 07:16:27;;;;;;;1.90;1.60;;;25.20;50.20;;;23.12;57.90;96398.94;4996024;28;20077;-71
2021/06/05 07:18:53;;;;;;;5.47;3.55;;;25.10;50.30;;;23.09;57.72;96394.91;5009759;28;20030;-71
2021/06/05 07:21:19;;;;;;;6.38;4.18;;;25.00;50.90;;;23.06;56.80;96400.75;4991138;28;20083;-70
2021/06/05 07:23:45;;;;;;;3.47;2.78;;;25.10;50.40;;;23.08;56.78;96395.13;4978001;28;20034;-74
2021/06/05 07:26:15;;;;;;;5.13;3.33;;;25.40;50.40;;;23.16;55.49;96391.97;5003919;28;20038;-74
2021/06/05 07:28:44;;;;;;;3.75;2.88;;;25.70;48.50;;;23.28;55.77;96391.75;4990991;28;20129;-70
2021/06/05 07:31:13;;;;;;;1.42;1.02;;;26.20;48.60;;;23.42;54.58;96395.56;5006777;28;20030;-74
2021/06/05 07:33:41;;;;;;;2.42;1.02;;;26.30;47.40;;;23.45;55.89;96392.34;4967628;28;21501;-72
2021/06/05 07:36:07;;;;;;;1.90;1.10;;;26.40;46.50;;;23.62;55.81;96392.97;4987123;28;20089;-72
2021/06/05 07:38:33;;;;;;;5.85;1.20;;;26.80;46.20;;;23.76;55.45;96388.72;4974719;28;20076;-73
2021/06/05 07:40:59;;;;;;;3.47;2.03;;;27.00;46.80;;;23.94;55.08;96383.91;5005188;28;20034;-71
2021/06/05 07:43:27;;;;;;;3.60;2.13;;;27.30;45.80;;;24.06;54.85;96393.34;4989924;28;20092;-73
2021/06/05 07:45:54;;;;;;;1.90;1.30;;;27.10;45.80;;;23.95;54.69;96391.69;4999605;28;20212;-75
2021/06/05 07:48:21;;;;;;;4.35;3.20;;;26.20;46.10;;;23.80;54.36;96389.00;4976779;28;20169;-70
2021/06/05 07:50:47;;;;;;;3.90;1.65;;;25.90;47.50;;;23.83;54.73;96391.97;4961263;28;20042;-69
2021/06/05 07:53:12;;;;;;;3.38;0.90;;;26.50;47.30;;;23.97;54.70;96394.13;4991631;28;20133;-68
2021/06/05 07:55:39;;;;;;;4.03;1.20;;;26.90;46.40;;;24.10;54.48;96390.91;4989941;28;20036;-68
2021/06/05 07:58:05;;;;;;;1.65;1.02;;;27.00;45.40;;;24.16;53.69;96392.53;4998481;28;20180;-68
2021/06/05 08:00:33;;;;;;;2.88;1.10;;;26.70;45.80;;;24.24;53.20;96394.72;5005350;28;20061;-71
2021/06/05 08:02:59;;;;;;;3.08;1.10;;;27.10;45.50;;;24.40;53.53;96384.78;4979974;28;20038;-69
2021/06/05 08:05:25;;;;;;;2.20;1.20;;;27.50;45.00;;;24.59;52.63;96382.34;4988615;28;20056;-68
2021/06/05 08:07:50;;;;;;;1.92;1.27;;;27.50;43.30;;;24.67;53.01;96388.00;5005717;28;20598;-69
2021/06/05 08:10:17;;;;;;;4.75;1.10;;;27.30;44.30;;;24.77;53.06;96389.84;4992264;28;20057;-68
2021/06/05 08:12:43;;;;;;;2.15;0.90;;;27.40;44.70;;;24.84;52.09;96387.69;5007523;28;20350;-69
2021/06/05 08:15:12;;;;;;;3.70;0.90;;;27.40;43.60;;;24.93;50.25;96390.63;4989346;28;20042;-67
2021/06/05 08:17:38;;;;;;;2.35;1.10;;;27.60;43.60;;;25.04;51.87;96390.34;4977194;28;20037;-69
2021/06/05 08:20:10;;;;;;;2.88;1.13;;;27.90;43.40;;;25.23;49.04;96381.69;5010113;28;20369;-70
2021/06/05 08:22:36;;;;;;;4.07;1.33;;;28.30;41.20;;;25.47;50.79;96388.03;4992018;28;20362;-70
2021/06/05 08:25:04;;;;;;;3.42;1.42;;;28.70;41.10;;;25.71;49.25;96393.59;5004157;28;20057;-71
2021/06/05 08:27:30;;;;;;;5.55;1.77;;;28.80;40.00;;;25.93;49.32;96398.59;5004255;28;20085;-69
2021/06/05 08:29:56;;;;;;;3.05;2.22;;;28.80;40.20;;;26.15;48.91;96399.00;5005492;28;20058;-70
2021/06/05 08:32:21;;;;;;;4.28;1.95;;;29.10;39.50;;;26.41;48.65;96388.03;4982508;28;20729;-70
2021/06/05 08:34:47;;;;;;;4.07;1.95;;;29.50;38.70;;;26.72;48.28;96400.19;5006511;28;20394;-69
2021/06/05 08:37:13;;;;;;;2.78;1.25;;;30.10;39.90;;;27.09;47.54;96404.16;4965193;28;20547;-69
2021/06/05 08:39:39;;;;;;;2.70;1.02;;;30.10;38.10;;;27.40;47.35;96396.53;4974965;28;22689;-69
2021/06/05 08:42:05;;;;;;;1.70;1.05;;;30.60;37.00;;;27.80;46.15;96386.28;4989500;28;20193;-68
2021/06/05 08:44:40;;;;;;;3.40;1.00;;;31.20;36.10;;;28.00;42.56;96397.63;4970374;28;20038;-69
2021/06/05 08:47:28;;;;;;;2.58;1.20;;;30.70;35.70;;;28.08;41.90;96392.66;4977083;28;20038;-69
2021/06/05 08:49:54;;;;;;;3.10;0.95;;;30.50;36.10;;;28.10;44.62;96387.78;4960365;28;20118;-69
2021/06/05 08:52:31;;;;;;;6.85;5.78;;;30.50;36.70;;;28.13;43.48;96390.69;5001800;28;20598;-69
2021/06/05 08:55:17;;;;;;;2.03;1.40;;;30.60;37.40;;;28.25;42.43;96393.75;4999781;28;20410;-71
2021/06/05 08:57:54;;;;;;;4.82;1.90;;;30.90;36.50;;;28.46;42.63;96385.31;4959048;28;20054;-70
2021/06/05 09:00:46;;;;;;;6.47;4.07;;;31.30;36.60;;;28.65;42.51;96391.50;4987544;28;20140;-70
2021/06/05 09:03:18;;;;;;;4.63;2.72;;;31.40;36.80;;;28.73;42.58;96381.88;4975750;28;20073;-70
2021/06/05 09:05:49;;;;;;;2.80;1.13;;;31.10;36.70;;;28.76;42.22;96389.44;4967386;28;20465;-69
2021/06/05 09:08:18;;;;;;;2.70;0.95;;;31.00;38.20;;;28.76;43.85;96392.94;5009061;28;20042;-70
2021/06/05 09:10:48;;;;;;;1.65;0.75;;;30.80;38.40;;;28.63;42.56;96389.09;4987048;28;20030;-70
2021/06/05 09:13:14;;;;;;;2.28;0.95;;;30.50;39.10;;;28.55;44.35;96392.47;4958972;28;20408;-70
2021/06/05 09:15:40;;;;;;;1.02;0.68;;;30.40;38.90;;;28.57;44.29;96390.28;4983345;28;20046;-70
2021/06/05 09:18:09;;;;;;;2.25;0.90;;;30.70;38.20;;;28.46;42.83;96391.53;4978637;28;20053;-70
2021/06/05 09:20:43;;;;;;;1.70;1.00;;;30.30;38.10;;;28.27;41.74;96396.16;4999613;28;20038;-71
2021/06/05 09:23:35;;;;;;;3.88;1.38;;;30.00;38.90;;;28.35;43.03;96398.22;4987542;28;20105;-69
2021/06/05 09:26:26;;;;;;;1.80;1.02;;;30.60;38.20;;;28.55;42.69;96392.47;5002065;28;20038;-70
2021/06/05 09:29:15;;;;;;;3.80;2.20;;;31.20;37.90;;;28.64;41.51;96401.50;5002980;28;20030;-70
2021/06/05 09:31:56;;;;;;;2.97;0.83;;;31.00;37.60;;;28.86;41.84;96392.78;4993552;28;20061;-70
2021/06/05 09:34:29;;;;;;;1.90;1.20;;;31.60;35.90;;;29.16;41.96;96396.81;5002576;28;20301;-70
2021/06/05 09:36:55;;;;;;;2.47;1.45;;;32.20;35.20;;;29.35;41.90;96395.91;4977817;28;20060;-70
2021/06/05 09:40:03;;;;;;;2.58;1.20;;;31.80;35.30;;;29.25;40.28;96402.34;4996581;28;20513;-71
2021/06/05 09:42:35;;;;;;;1.27;0.93;;;31.40;36.50;;;28.97;40.55;96401.53;4973830;28;20506;-68
2021/06/05 09:45:03;;;;;;;4.00;2.53;;;30.50;36.70;;;28.83;42.09;96408.78;5003074;28;20027;-69
2021/06/05 09:47:31;;;;;;;2.65;1.65;;;30.70;36.60;;;28.72;41.44;96402.72;5001716;28;20049;-69
2021/06/05 09:50:27;;;;;;;1.50;1.15;;;30.70;36.90;;;28.91;40.11;96397.28;4989467;28;20305;-68
2021/06/05 09:52:53;;;;;;;1.63;0.98;;;31.30;36.50;;;29.09;41.59;96401.81;4986142;28;20037;-69
2021/06/05 09:55:18;;;;;;;1.38;0.70;;;31.60;35.50;;;29.34;40.98;96392.41;4998805;28;20505;-70
2021/06/05 09:57:49;;;;;;;1.23;0.60;;;32.10;34.30;;;29.58;39.60;96393.00;5007962;28;20080;-69
2021/06/05 10:00:25;;;;;;;3.72;0.70;;;32.20;34.10;;;29.60;37.95;96395.41;5002645;28;20053;-70
2021/06/05 10:02:54;;;;;;;0.50;0.40;;;31.70;33.20;;;29.58;38.07;96393.00;4987686;28;20031;-71
2021/06/05 10:05:36;;;;;;;2.65;0.60;;;31.80;33.20;;;29.70;37.84;96395.22;4971410;28;20030;-70
2021/06/05 10:08:33;;;;;;;2.05;0.70;;;32.30;33.40;;;30.16;37.96;96391.50;4987082;28;20390;-71
2021/06/05 10:11:24;;;;;;;0.82;0.40;;;33.30;33.00;;;30.47;36.53;96386.94;4965412;28;20049;-72
2021/06/05 10:14:15;;;;;;;1.45;0.80;;;33.00;31.60;;;30.69;35.87;96388.88;4993150;28;20041;-70
2021/06/05 10:16:47;;;;;;;3.03;1.80;;;33.30;31.00;;;30.87;35.70;96367.25;5006404;28;20505;-68
2021/06/05 10:19:16;;;;;;;4.15;2.15;;;33.30;31.40;;;30.96;37.38;96377.03;5005323;28;20046;-69
2021/06/05 10:21:44;;;;;;;8.30;6.05;;;32.80;31.00;;;31.23;35.71;96378.78;5006337;28;20391;-70
2021/06/05 10:24:42;;;;;;;1.92;1.35;;;33.60;30.40;;;31.71;33.57;96358.09;5001394;28;20108;-69